Time,TemperatureF,DewpointF,PressureIn,WindDirection,WindDirectionDegrees,WindSpeedMPH,WindSpeedGustMPH,Humidity,HourlyPrecipIn,Conditions,Clouds,dailyrainin,SoftwareType,DateUTC
2013-05-27 07:52:00,74.0,68.0,29.99,NE,51,4.0,0.0,81,-99.99,,,-99.99,,2013-05-27 17:52:00,
2013-05-27 08:02:00,74.0,67.0,30.07,East,82,10.0,0.0,80,-99.99,,,0.00,,2013-05-27 18:02:00,
2013-05-27 08:11:00,75.0,68.0,30.07,ENE,57,9.0,18.0,79,0.00,,,0.00,,2013-05-27 18:11:00,
2013-05-27 08:21:00,75.0,68.0,30.07,ENE,57,9.0,18.0,79,0.00,,,0.00,,2013-05-27 18:21:00,
2013-05-27 08:32:00,76.0,69.0,30.08,ENE,74,9.0,19.0,78,0.00,,,0.00,,2013-05-27 18:32:00,
2013-05-27 08:41:00,76.0,69.0,30.08,ENE,74,9.0,19.0,78,0.00,,,0.00,,2013-05-27 18:41:00,
2013-05-27 08:52:00,76.0,68.0,30.08,ENE,77,7.0,13.0,76,0.00,,,0.00,,2013-05-27 18:52:00,
2013-05-27 09:01:00,77.0,69.0,30.09,East,83,5.0,17.0,77,0.00,,,0.00,,2013-05-27 19:01:00,
2013-05-27 09:11:00,77.0,69.0,30.09,East,83,5.0,17.0,77,0.00,,,0.00,,2013-05-27 19:11:00,
2013-05-27 09:21:00,77.0,68.0,30.09,East,83,17.0,17.0,74,0.00,,,0.00,,2013-05-27 19:21:00,
2013-05-27 09:31:00,78.0,69.0,30.09,ENE,78,14.0,22.0,74,0.00,,,0.00,,2013-05-27 19:31:00,
2013-05-27 09:41:00,78.0,69.0,30.09,ENE,78,14.0,22.0,74,0.00,,,0.00,,2013-05-27 19:41:00,
2013-05-27 09:52:00,78.0,69.0,30.09,East,85,6.0,16.0,75,0.00,,,0.00,,2013-05-27 19:52:00,
2013-05-27 10:01:00,78.0,69.0,30.08,ENE,67,7.0,18.0,74,0.00,,,0.00,,2013-05-27 20:01:00,
2013-05-27 10:11:00,78.0,69.0,30.08,ENE,67,7.0,18.0,74,0.00,,,0.00,,2013-05-27 20:11:00,
2013-05-27 10:21:00,79.0,69.0,30.09,East,99,8.0,17.0,72,0.00,,,0.00,,2013-05-27 20:21:00,
2013-05-27 10:32:00,80.0,70.0,30.09,ENE,67,8.0,17.0,71,0.00,,,0.00,,2013-05-27 20:32:00,
2013-05-27 10:41:00,81.0,70.0,30.09,East,90,8.0,20.0,69,0.00,,,0.00,,2013-05-27 20:41:00,
2013-05-27 10:52:00,81.0,70.0,30.09,East,90,8.0,20.0,69,0.00,,,0.00,,2013-05-27 20:52:00,
2013-05-27 11:01:00,81.0,70.0,30.09,ENE,69,7.0,17.0,69,0.00,,,0.00,,2013-05-27 21:01:00,
2013-05-27 11:11:00,82.0,70.0,30.08,ENE,69,9.0,12.0,68,0.00,,,0.00,,2013-05-27 21:11:00,
2013-05-27 11:21:00,82.0,70.0,30.08,ENE,69,9.0,12.0,68,0.00,,,0.00,,2013-05-27 21:21:00,
2013-05-27 11:32:00,82.0,70.0,30.08,ENE,69,8.0,14.0,68,0.00,,,0.00,,2013-05-27 21:32:00,
2013-05-27 11:42:00,83.0,70.0,30.08,ESE,109,9.0,18.0,66,0.00,,,0.00,,2013-05-27 21:42:00,
2013-05-27 11:53:00,83.0,70.0,30.08,ESE,109,9.0,18.0,66,0.00,,,0.00,,2013-05-27 21:53:00,
2013-05-27 12:02:00,83.0,70.0,30.09,East,91,3.0,16.0,64,0.00,,,0.00,,2013-05-27 22:02:00,
2013-05-27 12:12:00,83.0,70.0,30.08,NE,53,4.0,13.0,65,0.00,,,0.00,,2013-05-27 22:12:00,
2013-05-27 12:22:00,83.0,70.0,30.08,NE,53,4.0,13.0,65,0.00,,,0.00,,2013-05-27 22:22:00,
2013-05-27 12:32:00,82.0,70.0,30.08,North,5,11.0,12.0,67,0.00,,,0.00,,2013-05-27 22:32:00,
2013-05-27 12:42:00,83.0,70.0,30.08,ENE,57,7.0,17.0,66,0.00,,,0.00,,2013-05-27 22:42:00,
2013-05-27 12:52:00,83.0,70.0,30.08,ENE,57,7.0,17.0,66,0.00,,,0.00,,2013-05-27 22:52:00,
2013-05-27 13:02:00,83.0,71.0,30.08,ENE,64,2.0,11.0,67,0.00,,,0.00,,2013-05-27 23:02:00,
2013-05-27 13:11:00,82.0,70.0,30.08,East,88,5.0,17.0,68,0.00,,,0.00,,2013-05-27 23:11:00,
2013-05-27 13:22:00,82.0,70.0,30.08,East,88,5.0,17.0,68,0.00,,,0.00,,2013-05-27 23:22:00,
2013-05-27 13:32:00,84.0,70.0,30.07,East,91,5.0,15.0,64,0.00,,,0.00,,2013-05-27 23:32:00,
2013-05-27 13:42:00,84.0,70.0,30.07,East,91,5.0,15.0,64,0.00,,,0.00,,2013-05-27 23:42:00,
2013-05-27 13:52:00,83.0,70.0,30.06,East,82,13.0,15.0,66,0.00,,,0.00,,2013-05-27 23:52:00,
2013-05-27 14:01:00,83.0,70.0,30.07,ENE,76,8.0,15.0,65,0.00,,,0.00,,2013-05-28 00:01:00,
2013-05-27 14:11:00,83.0,70.0,30.07,ENE,76,8.0,15.0,65,0.00,,,0.00,,2013-05-28 00:11:00,
2013-05-27 14:21:00,82.0,70.0,30.06,East,90,9.0,14.0,68,0.00,,,0.00,,2013-05-28 00:21:00,
2013-05-27 14:31:00,82.0,69.0,30.06,NE,55,4.0,16.0,66,0.00,,,0.00,,2013-05-28 00:31:00,
2013-05-27 14:41:00,83.0,70.0,30.06,North,10,3.0,19.0,66,0.00,,,0.00,,2013-05-28 00:41:00,
2013-05-27 14:52:00,83.0,70.0,30.06,North,10,3.0,19.0,66,0.00,,,0.00,,2013-05-28 00:52:00,
2013-05-27 15:01:00,81.0,70.0,30.05,ENE,65,7.0,17.0,70,0.00,,,0.00,,2013-05-28 01:01:00,
2013-05-27 15:11:00,81.0,70.0,30.05,ENE,65,7.0,17.0,70,0.00,,,0.00,,2013-05-28 01:11:00,
2013-05-27 15:21:00,81.0,69.0,30.04,NNE,22,5.0,20.0,68,0.00,,,0.00,,2013-05-28 01:21:00,
2013-05-27 15:31:00,82.0,70.0,30.04,ENE,64,10.0,16.0,68,0.00,,,0.00,,2013-05-28 01:31:00,
2013-05-27 15:41:00,82.0,70.0,30.04,ENE,64,10.0,16.0,68,0.00,,,0.00,,2013-05-28 01:41:00,
2013-05-27 15:52:00,81.0,69.0,30.04,ENE,62,5.0,11.0,68,0.00,,,0.00,,2013-05-28 01:52:00,
2013-05-27 16:02:00,81.0,70.0,30.04,East,88,10.0,15.0,69,0.00,,,0.00,,2013-05-28 02:02:00,
2013-05-27 16:11:00,81.0,70.0,30.04,East,88,10.0,15.0,69,0.00,,,0.00,,2013-05-28 02:11:00,
2013-05-27 16:21:00,81.0,70.0,30.04,NE,35,8.0,12.0,70,0.00,,,0.00,,2013-05-28 02:21:00,
2013-05-27 16:32:00,80.0,70.0,30.04,NE,37,3.0,17.0,72,0.00,,,0.00,,2013-05-28 02:32:00,
2013-05-27 16:41:00,80.0,70.0,30.04,NE,37,3.0,17.0,72,0.00,,,0.00,,2013-05-28 02:41:00,
2013-05-27 16:52:00,77.0,69.0,30.04,NNE,22,3.0,14.0,76,0.00,,,0.00,,2013-05-28 02:52:00,
2013-05-27 17:01:00,81.0,72.0,30.04,East,93,11.0,15.0,74,0.00,,,0.00,,2013-05-28 03:01:00,
2013-05-27 17:11:00,81.0,72.0,30.04,East,93,11.0,15.0,74,0.00,,,0.00,,2013-05-28 03:11:00,
2013-05-27 17:20:00,76.0,70.0,30.03,NE,55,5.0,11.0,83,0.01,,,0.01,,2013-05-28 03:20:00,
2013-05-27 17:21:00,77.0,71.0,30.03,ENE,77,2.0,10.0,81,0.01,,,0.01,,2013-05-28 03:21:00,
2013-05-27 17:32:00,76.0,70.0,30.03,ENE,67,3.0,10.0,83,0.01,,,0.01,,2013-05-28 03:32:00,
2013-05-27 17:43:00,76.0,70.0,30.03,ENE,67,3.0,10.0,83,0.01,,,0.01,,2013-05-28 03:43:00,
2013-05-27 17:53:00,76.0,70.0,30.03,NE,55,5.0,11.0,83,0.01,,,0.01,,2013-05-28 03:53:00,
2013-05-27 18:02:00,76.0,70.0,30.03,NE,55,5.0,11.0,83,0.01,,,0.01,,2013-05-28 04:02:00,
2013-05-27 18:12:00,76.0,70.0,30.03,NE,55,5.0,11.0,83,0.01,,,0.01,,2013-05-28 04:12:00,